createdAt,value
2022-09-06T00:01:17.290Z,2.78
2022-09-06T00:03:45.142Z,2.63
2022-09-06T00:06:15.084Z,2.70
2022-09-06T00:08:44.164Z,2.90
2022-09-06T00:11:11.830Z,2.72
2022-09-06T00:13:39.734Z,3.05
2022-09-06T00:16:12.690Z,2.83
2022-09-06T00:18:39.840Z,2.83
2022-09-06T00:21:24.595Z,2.35
2022-09-06T00:23:52.180Z,2.72
2022-09-06T00:26:22.724Z,2.50
2022-09-06T00:28:50.398Z,2.85
2022-09-06T00:31:25.990Z,2.88
2022-09-06T00:33:53.448Z,2.78
2022-09-06T00:36:21.396Z,2.60
2022-09-06T00:38:48.561Z,2.80
2022-09-06T00:41:16.918Z,2.97
2022-09-06T00:43:44.225Z,2.70
2022-09-06T00:46:17.104Z,2.60
2022-09-06T00:48:45.535Z,2.83
2022-09-06T00:51:15.530Z,2.72
2022-09-06T00:53:43.288Z,2.70
2022-09-06T00:56:10.570Z,2.78
2022-09-06T00:58:38.060Z,2.63
2022-09-06T01:01:06.883Z,2.97
2022-09-06T01:03:35.235Z,2.95
2022-09-06T01:06:14.273Z,2.65
2022-09-06T01:09:06.770Z,2.80
2022-09-06T01:11:51.857Z,2.80
2022-09-06T01:14:38.704Z,2.85
2022-09-06T01:17:15.254Z,2.67
2022-09-06T01:20:17.810Z,2.95
2022-09-06T01:23:21.272Z,2.90
2022-09-06T01:26:38.505Z,2.40
2022-09-06T01:29:14.900Z,2.97
2022-09-06T01:32:01.030Z,2.47
2022-09-06T01:34:37.012Z,2.88
2022-09-06T01:37:11.951Z,3.10
2022-09-06T01:39:41.258Z,2.90
2022-09-06T01:42:24.732Z,2.70
2022-09-06T01:45:07.666Z,2.70
2022-09-06T01:47:43.738Z,2.72
2022-09-06T01:50:45.679Z,2.75
2022-09-06T01:53:27.198Z,2.45
2022-09-06T01:56:08.784Z,2.80
2022-09-06T01:58:42.721Z,2.50
2022-09-06T02:01:40.626Z,2.70
2022-09-06T02:04:23.166Z,2.60
2022-09-06T02:06:57.874Z,2.78
2022-09-06T02:09:28.892Z,2.80
2022-09-06T02:11:59.835Z,2.60
2022-09-06T02:14:38.195Z,2.25
2022-09-06T02:17:09.856Z,2.63
2022-09-06T02:19:44.812Z,2.63
2022-09-06T02:22:15.735Z,2.63
2022-09-06T02:24:45.760Z,2.70
2022-09-06T02:27:13.536Z,2.88
2022-09-06T02:29:41.496Z,2.78
2022-09-06T02:32:23.748Z,2.28
2022-09-06T02:34:54.197Z,2.65
2022-09-06T02:37:23.030Z,2.83
2022-09-06T02:39:50.135Z,2.88
2022-09-06T02:42:17.666Z,2.85
2022-09-06T02:44:44.895Z,2.75
2022-09-06T02:47:12.113Z,3.30
2022-09-06T02:49:39.295Z,2.90
2022-09-06T02:52:06.357Z,2.78
2022-09-06T02:54:33.441Z,2.50
2022-09-06T02:57:00.574Z,2.83
2022-09-06T02:59:27.780Z,4.80
2022-09-06T03:01:54.940Z,3.03
2022-09-06T03:04:22.094Z,2.70
2022-09-06T03:06:49.250Z,2.45
2022-09-06T03:09:16.312Z,2.80
2022-09-06T03:11:43.556Z,2.53
2022-09-06T03:14:10.621Z,2.90
2022-09-06T03:16:38.681Z,3.50
2022-09-06T03:19:05.820Z,2.40
2022-09-06T03:21:33.026Z,2.92
2022-09-06T03:24:00.076Z,2.40
2022-09-06T03:26:28.076Z,2.80
2022-09-06T03:28:55.176Z,2.83
2022-09-06T03:31:22.435Z,2.22
2022-09-06T03:33:49.560Z,2.70
2022-09-06T03:36:17.158Z,2.40
2022-09-06T03:38:44.331Z,3.00
2022-09-06T03:41:11.473Z,2.80
2022-09-06T03:43:38.610Z,2.70
2022-09-06T03:46:05.797Z,2.60
2022-09-06T03:48:32.981Z,2.50
2022-09-06T03:51:00.321Z,2.65
2022-09-06T03:53:29.722Z,2.45
2022-09-06T03:55:58.290Z,2.78
2022-09-06T03:58:30.560Z,2.60
2022-09-06T04:01:08.174Z,2.88
2022-09-06T04:03:36.088Z,2.97
2022-09-06T04:06:04.019Z,2.47
2022-09-06T04:08:31.746Z,2.78
2022-09-06T04:10:59.844Z,2.50
2022-09-06T04:13:28.877Z,3.08
2022-09-06T04:15:56.232Z,2.67
2022-09-06T04:18:24.312Z,2.95
2022-09-06T04:20:53.072Z,2.70
2022-09-06T04:23:20.602Z,2.60
2022-09-06T04:25:49.221Z,2.67
2022-09-06T04:28:18.440Z,2.58
2022-09-06T04:31:04.633Z,2.65
2022-09-06T04:33:33.977Z,2.70
2022-09-06T04:36:02.803Z,2.90
2022-09-06T04:38:31.299Z,2.58
2022-09-06T04:40:58.382Z,2.60
2022-09-06T04:43:25.615Z,2.67
2022-09-06T04:45:52.727Z,2.53
2022-09-06T04:48:19.969Z,2.67
2022-09-06T04:50:47.131Z,2.63
2022-09-06T04:53:14.299Z,2.53
2022-09-06T04:55:41.454Z,3.22
2022-09-06T04:58:08.459Z,3.20
2022-09-06T05:00:36.155Z,3.45
2022-09-06T05:03:03.292Z,2.63
2022-09-06T05:05:30.436Z,2.92
2022-09-06T05:07:57.737Z,2.85
2022-09-06T05:10:25.087Z,2.75
2022-09-06T05:12:53.916Z,3.22
2022-09-06T05:15:22.606Z,2.90
2022-09-06T05:17:49.640Z,2.70
2022-09-06T05:20:17.165Z,2.70
2022-09-06T05:22:53.835Z,2.70
2022-09-06T05:25:20.974Z,2.72
2022-09-06T05:27:48.198Z,2.80
2022-09-06T05:30:17.897Z,2.78
2022-09-06T05:32:45.299Z,2.97
2022-09-06T05:35:12.585Z,2.75
2022-09-06T05:37:39.674Z,2.70
2022-09-06T05:40:07.257Z,2.65
2022-09-06T05:42:34.402Z,2.53
2022-09-06T05:45:02.457Z,2.60
2022-09-06T05:47:31.264Z,2.78
2022-09-06T05:49:58.398Z,3.00
2022-09-06T05:52:25.518Z,3.35
2022-09-06T05:54:52.628Z,3.47
2022-09-06T05:57:19.699Z,3.30
2022-09-06T05:59:46.762Z,2.63
2022-09-06T06:02:13.781Z,2.40
2022-09-06T06:04:40.839Z,2.92
2022-09-06T06:07:07.906Z,3.00
2022-09-06T06:09:35.012Z,3.20
2022-09-06T06:12:02.233Z,3.00
2022-09-06T06:14:32.030Z,2.75
2022-09-06T06:16:59.202Z,2.58
2022-09-06T06:19:26.975Z,2.90
2022-09-06T06:21:56.103Z,2.70
2022-09-06T06:24:23.215Z,2.90
2022-09-06T06:26:50.434Z,3.50
2022-09-06T06:29:17.492Z,2.70
2022-09-06T06:31:44.694Z,2.45
2022-09-06T06:34:11.929Z,2.67
2022-09-06T06:36:39.141Z,2.60
2022-09-06T06:39:08.666Z,2.60
2022-09-06T06:41:36.025Z,2.78
2022-09-06T06:44:05.002Z,3.00
2022-09-06T06:46:34.994Z,3.25
2022-09-06T06:49:02.244Z,2.72
2022-09-06T06:51:32.455Z,3.17
2022-09-06T06:54:00.188Z,2.53
2022-09-06T06:56:32.886Z,2.65
2022-09-06T06:59:02.766Z,2.90
2022-09-06T07:01:32.015Z,2.72
2022-09-06T07:03:59.774Z,2.80
2022-09-06T07:09:17.081Z,3.30
2022-09-06T07:11:44.551Z,3.15
2022-09-06T07:14:11.579Z,2.80
2022-09-06T07:16:38.821Z,2.45
2022-09-06T07:19:06.183Z,3.03
2022-09-06T07:24:08.367Z,2.83
2022-09-06T07:26:37.556Z,2.80
2022-09-06T07:29:05.924Z,2.65
2022-09-06T07:34:22.311Z,3.50
2022-09-06T07:36:56.244Z,4.32
2022-09-06T07:39:23.458Z,2.97
2022-09-06T07:41:50.636Z,2.75
2022-09-06T07:44:17.860Z,2.83
2022-09-06T07:46:45.190Z,2.30
2022-09-06T07:49:12.344Z,2.35
2022-09-06T07:51:39.399Z,2.20
2022-09-06T07:54:28.945Z,2.70
2022-09-06T07:56:54.213Z,2.63
2022-09-06T07:59:21.209Z,3.00
2022-09-06T08:01:49.113Z,2.45
2022-09-06T08:04:16.312Z,2.75
2022-09-06T08:09:36.686Z,2.53
2022-09-06T08:12:07.118Z,2.83
2022-09-06T08:14:35.312Z,2.30
2022-09-06T08:17:05.181Z,2.15
2022-09-06T08:19:32.875Z,2.40
2022-09-06T08:21:59.965Z,2.67
2022-09-06T08:24:27.820Z,2.53
2022-09-06T08:26:54.822Z,2.70
2022-09-06T08:29:21.904Z,2.42
2022-09-06T08:31:48.973Z,2.53
2022-09-06T08:34:16.187Z,2.17
2022-09-06T08:36:44.299Z,2.08
2022-09-06T08:39:11.922Z,2.25
2022-09-06T08:42:00.511Z,2.83
2022-09-06T08:44:57.360Z,2.15
2022-09-06T08:47:25.661Z,2.00
2022-09-06T08:49:56.449Z,1.90
2022-09-06T08:55:59.460Z,2.42
2022-09-06T08:58:45.880Z,2.20
2022-09-06T09:01:23.271Z,2.17
2022-09-06T09:03:53.040Z,2.47
2022-09-06T09:06:20.103Z,2.15
2022-09-06T09:09:07.229Z,1.95
2022-09-06T09:11:36.446Z,1.83
2022-09-06T09:14:12.476Z,1.77
2022-09-06T09:16:41.975Z,2.10
2022-09-06T09:19:09.659Z,2.05
2022-09-06T09:21:40.615Z,2.20
2022-09-06T09:24:12.209Z,2.30
2022-09-06T09:26:48.803Z,2.42
2022-09-06T09:29:17.338Z,2.42
2022-09-06T09:31:54.549Z,2.33
2022-09-06T09:34:36.876Z,2.20
2022-09-06T09:40:01.397Z,1.98
2022-09-06T09:42:35.957Z,2.30
2022-09-06T09:45:06.442Z,2.08
2022-09-06T09:47:34.935Z,2.00
2022-09-06T09:50:02.432Z,1.85
2022-09-06T09:52:32.890Z,2.15
2022-09-06T09:55:04.496Z,1.80
2022-09-06T09:57:33.126Z,1.90
2022-09-06T10:00:06.712Z,1.70
2022-09-06T10:02:42.197Z,1.92
2022-09-06T10:05:12.959Z,2.08
2022-09-06T10:07:45.234Z,1.65
2022-09-06T10:10:33.095Z,2.45
2022-09-06T10:13:29.871Z,2.33
2022-09-06T10:16:03.449Z,1.40
2022-09-06T10:18:32.806Z,1.60
2022-09-06T10:21:01.708Z,2.05
2022-09-06T10:26:28.869Z,1.80
2022-09-06T10:29:02.552Z,3.05
2022-09-06T10:31:48.366Z,1.50
2022-09-06T10:34:34.003Z,2.08
2022-09-06T10:37:22.669Z,2.10
2022-09-06T10:39:56.525Z,2.00
2022-09-06T10:42:29.885Z,1.70
2022-09-06T10:45:06.366Z,1.70
2022-09-06T10:47:38.551Z,1.92
2022-09-06T10:50:07.098Z,1.48
2022-09-06T10:52:36.654Z,1.85
2022-09-06T10:55:05.714Z,2.08
2022-09-06T11:00:27.964Z,2.70
2022-09-06T11:05:53.363Z,1.73
2022-09-06T11:11:23.370Z,2.03
2022-09-06T11:13:50.851Z,2.00
2022-09-06T11:16:28.438Z,1.58
2022-09-06T11:18:58.965Z,2.08
2022-09-06T11:21:29.324Z,1.73
2022-09-06T11:24:15.546Z,1.60
2022-09-06T11:26:45.934Z,1.92
2022-09-06T11:29:21.817Z,2.03
2022-09-06T11:34:45.798Z,1.60
2022-09-06T11:37:26.069Z,1.80
2022-09-06T11:40:27.412Z,1.73
2022-09-06T11:42:55.862Z,1.70
2022-09-06T11:45:23.505Z,1.63
2022-09-06T11:47:53.947Z,1.70
2022-09-06T11:50:21.330Z,1.88
2022-09-06T11:53:09.036Z,1.90
2022-09-06T11:55:45.311Z,2.10
2022-09-06T11:58:21.706Z,1.90
2022-09-06T12:01:07.464Z,1.90
2022-09-06T12:04:06.549Z,1.88
2022-09-06T12:06:35.591Z,1.88
2022-09-06T12:09:03.685Z,1.85
2022-09-06T12:11:46.476Z,1.95
2022-09-06T12:14:32.233Z,1.77
2022-09-06T12:17:00.491Z,1.60
2022-09-06T12:19:44.130Z,1.92
2022-09-06T12:22:30.082Z,1.88
2022-09-06T12:25:05.717Z,2.00
2022-09-06T12:27:37.792Z,1.80
2022-09-06T12:30:11.491Z,1.98
2022-09-06T12:32:41.567Z,1.80
2022-09-06T12:38:02.327Z,4.30
2022-09-06T12:40:31.702Z,2.08
2022-09-06T12:42:59.280Z,2.03
2022-09-06T12:45:27.670Z,2.30
2022-09-06T12:48:06.417Z,1.80
2022-09-06T12:50:33.916Z,2.05
2022-09-06T12:53:02.858Z,2.00
2022-09-06T12:55:34.681Z,1.90
2022-09-06T12:58:03.397Z,1.98
2022-09-06T13:00:54.710Z,2.10
2022-09-06T13:03:25.147Z,2.05
2022-09-06T13:05:53.777Z,2.03
2022-09-06T13:08:26.131Z,1.98
2022-09-06T13:10:53.996Z,2.10
2022-09-06T13:13:23.569Z,1.55
2022-09-06T13:15:51.038Z,1.55
2022-09-06T13:18:23.490Z,1.65
2022-09-06T13:21:14.894Z,1.80
2022-09-06T13:23:44.099Z,1.80
2022-09-06T13:26:11.536Z,1.80
2022-09-06T13:28:38.976Z,1.90
2022-09-06T13:31:14.236Z,1.60
2022-09-06T13:33:42.261Z,2.00
2022-09-06T13:36:12.726Z,1.92
2022-09-06T13:38:42.901Z,2.10
2022-09-06T13:41:25.362Z,2.33
2022-09-06T13:44:00.165Z,2.00
2022-09-06T13:46:27.705Z,2.10
2022-09-06T13:48:55.537Z,1.90
2022-09-06T13:51:23.385Z,2.00
2022-09-06T13:53:51.235Z,2.15
2022-09-06T13:56:18.702Z,2.05
2022-09-06T13:58:46.278Z,1.80
2022-09-06T14:01:14.590Z,1.83
2022-09-06T14:03:42.865Z,1.90
2022-09-06T14:06:11.131Z,1.73
2022-09-06T14:09:03.370Z,2.00
2022-09-06T14:11:27.179Z,1.80
2022-09-06T14:13:55.144Z,2.05
2022-09-06T14:16:22.703Z,1.85
2022-09-06T14:18:52.081Z,1.83
2022-09-06T14:21:19.539Z,2.05
2022-09-06T14:23:54.031Z,1.95
2022-09-06T14:26:22.132Z,1.70
2022-09-06T14:28:50.007Z,1.92
2022-09-06T14:31:19.162Z,1.90
2022-09-06T14:33:46.805Z,1.80
2022-09-06T14:36:15.846Z,2.00
2022-09-06T14:38:46.533Z,2.00
2022-09-06T14:41:14.757Z,1.88
2022-09-06T14:43:45.822Z,1.70
2022-09-06T14:46:14.530Z,1.85
2022-09-06T14:48:42.912Z,1.73
2022-09-06T14:51:20.916Z,1.98
2022-09-06T14:53:49.112Z,1.92
2022-09-06T14:56:17.034Z,2.00
2022-09-06T14:58:47.674Z,2.30
2022-09-06T15:01:16.413Z,1.88
2022-09-06T15:03:46.918Z,1.83
2022-09-06T15:06:14.327Z,1.92
2022-09-06T15:08:41.825Z,1.88
2022-09-06T15:11:09.647Z,2.63
2022-09-06T15:13:37.715Z,1.85
2022-09-06T15:16:06.291Z,2.30
2022-09-06T15:18:33.990Z,2.00
2022-09-06T15:21:15.060Z,2.05
2022-09-06T15:23:43.771Z,1.95
2022-09-06T15:26:12.252Z,2.47
2022-09-06T15:28:40.216Z,2.10
2022-09-06T15:31:08.540Z,2.45
2022-09-06T15:33:36.933Z,2.17
2022-09-06T15:36:08.287Z,2.20
2022-09-06T15:38:48.945Z,1.98
2022-09-06T15:41:16.394Z,2.45
2022-09-06T15:43:48.141Z,2.28
2022-09-06T15:46:16.581Z,2.60
2022-09-06T15:48:48.264Z,2.55
2022-09-06T15:51:17.056Z,2.38
2022-09-06T15:53:44.775Z,2.30
2022-09-06T15:56:14.017Z,2.50
2022-09-06T15:58:41.416Z,2.38
2022-09-06T16:01:10.595Z,2.22
2022-09-06T16:03:39.135Z,2.22
2022-09-06T16:09:03.192Z,2.42
2022-09-06T16:11:32.724Z,2.40
2022-09-06T16:14:00.184Z,1.80
2022-09-06T16:16:29.403Z,2.55
2022-09-06T16:18:59.297Z,1.80
2022-09-06T16:21:29.703Z,2.15
2022-09-06T16:23:58.338Z,2.30
2022-09-06T16:26:26.845Z,2.50
2022-09-06T16:28:54.753Z,2.35
2022-09-06T16:31:22.779Z,2.20
2022-09-06T16:33:51.103Z,1.85
2022-09-06T16:36:19.092Z,2.05
2022-09-06T16:38:50.341Z,2.10
2022-09-06T16:41:25.432Z,2.25
2022-09-06T16:43:53.294Z,2.50
2022-09-06T16:46:22.130Z,2.03
2022-09-06T16:48:53.206Z,2.30
2022-09-06T16:51:22.072Z,2.05
2022-09-06T16:53:49.998Z,2.25
2022-09-06T16:56:18.903Z,2.33
2022-09-06T16:58:53.688Z,2.50
2022-09-06T17:01:21.688Z,2.53
2022-09-06T17:03:49.610Z,2.40
2022-09-06T17:06:17.476Z,2.38
2022-09-06T17:08:45.411Z,2.00
2022-09-06T17:11:17.067Z,2.25
2022-09-06T17:13:45.459Z,2.00
2022-09-06T17:16:31.972Z,2.45
2022-09-06T17:19:01.356Z,2.67
2022-09-06T17:21:29.163Z,2.42
2022-09-06T17:23:58.797Z,2.10
2022-09-06T17:26:26.298Z,2.40
2022-09-06T17:28:54.842Z,2.30
2022-09-06T17:31:25.703Z,2.35
2022-09-06T17:33:54.004Z,2.00
2022-09-06T17:36:25.317Z,2.30
2022-09-06T17:38:53.972Z,2.20
2022-09-06T17:41:24.314Z,2.20
2022-09-06T17:43:53.847Z,2.05
2022-09-06T17:46:25.272Z,2.25
2022-09-06T17:48:55.444Z,4.63
2022-09-06T17:51:23.013Z,5.93
2022-09-06T17:53:50.487Z,3.42
2022-09-06T17:56:18.913Z,3.35
2022-09-06T17:59:00.192Z,3.50
2022-09-06T18:01:32.227Z,3.17
2022-09-06T18:04:00.228Z,3.42
2022-09-06T18:06:28.604Z,3.30
2022-09-06T18:08:56.843Z,2.97
2022-09-06T18:11:25.610Z,2.75
2022-09-06T18:14:01.488Z,3.45
2022-09-06T18:16:29.883Z,3.35
2022-09-06T18:18:58.863Z,3.42
2022-09-06T18:21:26.887Z,3.30
2022-09-06T18:23:55.258Z,2.85
2022-09-06T18:26:22.993Z,3.60
2022-09-06T18:28:50.852Z,3.83
2022-09-06T18:31:19.602Z,3.20
2022-09-06T18:33:47.212Z,2.75
2022-09-06T18:36:18.416Z,2.05
2022-09-06T18:38:46.147Z,1.98
2022-09-06T18:41:34.792Z,1.60
2022-09-06T18:44:05.871Z,1.75
2022-09-06T18:46:34.525Z,2.40
2022-09-06T18:49:02.037Z,2.88
2022-09-06T18:51:29.465Z,2.53
2022-09-06T18:53:57.668Z,2.42
2022-09-06T18:56:25.374Z,2.60
2022-09-06T18:58:59.928Z,2.53
2022-09-06T19:01:31.093Z,2.13
2022-09-06T19:03:59.119Z,2.17
2022-09-06T19:06:27.387Z,2.20
2022-09-06T19:08:56.199Z,2.05
2022-09-06T19:11:23.914Z,2.03
2022-09-06T19:13:52.229Z,2.03
2022-09-06T19:16:20.190Z,1.80
2022-09-06T19:18:50.316Z,1.55
2022-09-06T19:21:19.255Z,1.70
2022-09-06T19:23:47.768Z,1.80
2022-09-06T19:26:19.494Z,1.65
2022-09-06T19:28:53.292Z,1.60
2022-09-06T19:31:20.862Z,1.48
2022-09-06T19:33:49.116Z,1.55
2022-09-06T19:36:17.023Z,1.70
2022-09-06T19:39:01.990Z,1.55
2022-09-06T19:41:31.701Z,1.80
2022-09-06T19:44:00.202Z,1.70
2022-09-06T19:46:28.163Z,1.73
2022-09-06T19:48:56.390Z,1.70
2022-09-06T19:51:24.664Z,1.50
2022-09-06T19:53:53.300Z,2.03
2022-09-06T19:56:24.799Z,2.00
2022-09-06T19:58:56.246Z,1.80
2022-09-06T20:01:24.146Z,1.48
2022-09-06T20:03:52.247Z,1.73
2022-09-06T20:06:19.785Z,2.10
2022-09-06T20:08:50.300Z,2.65
2022-09-06T20:11:18.143Z,2.95
2022-09-06T20:13:45.633Z,3.08
2022-09-06T20:16:13.263Z,3.08
2022-09-06T20:18:41.093Z,3.03
2022-09-06T20:21:08.897Z,3.60
2022-09-06T20:23:36.808Z,3.53
2022-09-06T20:26:13.594Z,3.55
2022-09-06T20:28:41.063Z,3.97
2022-09-06T20:31:10.163Z,4.33
2022-09-06T20:33:37.943Z,3.60
2022-09-06T20:36:07.009Z,4.07
2022-09-06T20:38:38.935Z,3.40
2022-09-06T20:41:07.673Z,3.63
2022-09-06T20:43:36.998Z,3.65
2022-09-06T20:46:13.024Z,3.13
2022-09-06T20:48:44.446Z,2.58
2022-09-06T20:51:19.335Z,3.08
2022-09-06T20:53:48.745Z,2.28
2022-09-06T20:56:19.326Z,2.30
2022-09-06T20:59:00.954Z,2.17
2022-09-06T21:01:31.019Z,2.40
2022-09-06T21:03:59.997Z,2.42
2022-09-06T21:06:31.454Z,7.75
2022-09-06T21:08:58.666Z,3.33
2022-09-06T21:11:26.054Z,2.50
2022-09-06T21:13:56.187Z,1.90
2022-09-06T21:16:25.825Z,1.52
2022-09-06T21:18:57.195Z,2.10
2022-09-06T21:21:25.593Z,1.90
2022-09-06T21:23:53.309Z,1.90
2022-09-06T21:26:21.845Z,1.73
2022-09-06T21:28:49.392Z,2.95
2022-09-06T21:31:19.932Z,7.78
2022-09-06T21:33:54.634Z,8.25
2022-09-06T21:36:30.152Z,4.40
2022-09-06T21:39:01.914Z,2.95
2022-09-06T21:41:29.999Z,3.58
2022-09-06T21:43:59.335Z,2.60
2022-09-06T21:46:32.855Z,1.70
2022-09-06T21:49:02.767Z,1.10
2022-09-06T21:51:30.314Z,1.40
2022-09-06T21:53:58.842Z,1.30
2022-09-06T21:56:26.730Z,1.15
2022-09-06T21:58:58.004Z,1.42
2022-09-06T22:01:26.340Z,1.60
2022-09-06T22:03:54.335Z,1.20
2022-09-06T22:06:28.885Z,1.13
2022-09-06T22:09:01.336Z,1.05
2022-09-06T22:11:34.049Z,1.30
2022-09-06T22:14:03.544Z,1.23
2022-09-06T22:16:33.272Z,1.00
2022-09-06T22:19:00.837Z,1.17
2022-09-06T22:21:28.185Z,1.10
2022-09-06T22:24:03.913Z,1.00
2022-09-06T22:26:33.450Z,1.00
2022-09-06T22:29:02.720Z,0.98
2022-09-06T22:31:31.728Z,1.50
2022-09-06T22:33:59.437Z,1.20
2022-09-06T22:36:27.327Z,1.15
2022-09-06T22:38:59.170Z,0.82
2022-09-06T22:41:29.131Z,0.77
2022-09-06T22:43:56.710Z,0.68
2022-09-06T22:46:23.877Z,0.90
2022-09-06T22:48:51.123Z,0.70
2022-09-06T22:51:18.475Z,0.90
2022-09-06T22:53:45.681Z,1.30
2022-09-06T22:56:12.852Z,1.33
2022-09-06T22:58:39.882Z,1.38
2022-09-06T23:01:12.570Z,1.20
2022-09-06T23:03:40.769Z,1.13
2022-09-06T23:06:08.722Z,1.35
2022-09-06T23:08:37.438Z,1.40
2022-09-06T23:11:07.396Z,1.30
2022-09-06T23:13:34.888Z,1.63
2022-09-06T23:16:06.957Z,1.52
2022-09-06T23:18:34.782Z,1.20
2022-09-06T23:21:06.901Z,1.10
2022-09-06T23:23:34.723Z,1.45
2022-09-06T23:26:13.002Z,1.23
2022-09-06T23:28:40.241Z,0.80
2022-09-06T23:31:11.500Z,0.80
2022-09-06T23:33:38.796Z,1.25
2022-09-06T23:36:07.880Z,1.50
2022-09-06T23:38:36.803Z,1.40
2022-09-06T23:41:05.001Z,1.55
2022-09-06T23:43:32.703Z,1.20
2022-09-06T23:45:59.808Z,1.10
2022-09-06T23:48:26.978Z,0.90
2022-09-06T23:50:56.738Z,0.90
2022-09-06T23:53:24.078Z,1.30
2022-09-06T23:55:51.288Z,0.98
2022-09-06T23:58:18.808Z,1.00
